»·PEaware :: VRD515 KSAN-KFAT

VRD515 :: KSAN-KFAT

FLIGHT INFORMATION

Flight Status: Arrived
Operator:
Virgin America
More flights by this operator :: More flights under this callsign
Pilot: James D. (13710)
Aircraft: AIRBUS A320
(A320)
More flights by this aircraft type
Origin: KSAN San Diego Intl-Lindbergh
United States
Destination: KFAT Fresno Yosemite Intl
United States
More flights between these airports :: More routes between these airports
Route: +PADRZ2 EHF TTE ALTTA8
File this flight plan on PilotEdge
Remarks:
Altitude:
(Current/Filed)
34,000ft
Speed:
(Current/Filed)
437kts
Departed: 03-May-18 10:49 AM
Arrived: 03-May-18 11:41 AM
Distance/Time
Traveled:
272nm/0:52
Distance/Time
To Go:
Arrived

Flight Plot

Page will automatically refresh every two minutes.

Flight plan parsing failed; only flown route is shown


Map Options




Map Legend


Flown Route
Filed Route
Departure Airport
Arrival Airport
Navaid (VOR, NDB)
Fix

Horizontal Profiles

Position Reports

Time Latitude Longitude Heading Altitude Ground
Speed
03-May-18 10:12 32.732569 -117.195497 311 25ft 0kts
03-May-18 10:13 32.732569 -117.195497 311 25ft 0kts
03-May-18 10:14 32.732569 -117.195497 311 25ft 0kts
03-May-18 10:15 32.732569 -117.195497 311 25ft 0kts
03-May-18 10:16 32.732569 -117.195497 311 25ft 0kts
03-May-18 10:18 32.732569 -117.195497 311 25ft 0kts
03-May-18 10:18 32.732569 -117.195497 311 25ft 0kts
03-May-18 10:19 32.732569 -117.195497 311 25ft 0kts
03-May-18 10:20 32.732569 -117.195497 311 25ft 0kts
03-May-18 10:21 32.732569 -117.195497 311 25ft 0kts
03-May-18 10:22 32.732569 -117.195497 311 25ft 0kts
03-May-18 10:23 32.732569 -117.195497 311 25ft 0kts
03-May-18 10:24 32.732569 -117.195497 311 25ft 0kts
03-May-18 10:25 32.732569 -117.195497 311 25ft 0kts
03-May-18 10:26 32.732569 -117.195497 311 25ft 0kts
03-May-18 10:27 32.732569 -117.195497 311 25ft 0kts
03-May-18 10:28 32.732569 -117.195497 311 25ft 0kts
03-May-18 10:29 32.732569 -117.195497 311 25ft 0kts
03-May-18 10:30 32.732569 -117.195497 311 25ft 0kts
03-May-18 10:31 32.732569 -117.195497 311 25ft 0kts
03-May-18 10:32 32.732569 -117.195497 311 25ft 0kts
03-May-18 10:33 32.732569 -117.195497 311 25ft 0kts
03-May-18 10:34 32.732569 -117.195497 311 25ft 0kts
03-May-18 10:35 32.732569 -117.195497 311 25ft 0kts
03-May-18 10:36 32.732569 -117.195497 311 25ft 0kts
03-May-18 10:37 32.732569 -117.195496 311 25ft 0kts
03-May-18 10:38 32.732255 -117.195224 345 24ft 2kts
03-May-18 10:39 32.731981 -117.195217 9 24ft 0kts
03-May-18 10:40 32.731981 -117.195217 9 24ft 0kts
03-May-18 10:41 32.731993 -117.195215 9 24ft 1kts
03-May-18 10:42 32.732730 -117.194617 37 24ft 0kts
03-May-18 10:43 32.733057 -117.191800 106 25ft 11kts
03-May-18 10:44 32.732043 -117.187679 106 24ft 14kts
03-May-18 10:45 32.730834 -117.182667 107 22ft 16kts
03-May-18 10:46 32.729796 -117.178442 106 23ft 3kts
03-May-18 10:47 32.729720 -117.176567 24 23ft 12kts
03-May-18 10:48 32.736829 -117.202861 288 557ft 169kts
03-May-18 10:49 32.765139 -117.254864 306 3188ft 224kts
03-May-18 10:50 32.804520 -117.324297 310 6051ft 271kts
03-May-18 10:51 32.851442 -117.397138 310 9291ft 287kts
03-May-18 10:52 32.902612 -117.476758 310 11466ft 336kts
03-May-18 10:53 32.963136 -117.571208 310 13430ft 371kts
03-May-18 10:54 33.025482 -117.669642 309 15831ft 380kts
03-May-18 10:55 33.096560 -117.762890 322 17996ft 384kts
03-May-18 10:56 33.177540 -117.845249 322 19946ft 391kts
03-May-18 10:57 33.261218 -117.927676 324 21697ft 398kts
03-May-18 10:58 33.347475 -118.011849 324 23298ft 405kts
03-May-18 10:59 33.435070 -118.097662 324 24754ft 411kts
03-May-18 11:00 33.523939 -118.184971 324 26083ft 417kts
03-May-18 11:01 33.620250 -118.260561 338 27285ft 417kts
03-May-18 11:02 33.725613 -118.318605 338 28402ft 421kts
03-May-18 11:03 33.832550 -118.374089 340 29449ft 423kts
03-May-18 11:04 33.930739 -118.423718 340 30737ft 416kts
03-May-18 11:05 34.038834 -118.465456 354 31970ft 407kts
03-May-18 11:06 34.149391 -118.482376 354 33144ft 402kts
03-May-18 11:07 34.258960 -118.499246 353 34230ft 398kts
03-May-18 11:08 34.366127 -118.515773 354 34322ft 396kts
03-May-18 11:09 34.475549 -118.532685 354 34330ft 397kts
03-May-18 11:10 34.584924 -118.549640 354 34329ft 397kts
03-May-18 11:11 34.694301 -118.566639 354 34314ft 397kts
03-May-18 11:12 34.803312 -118.583620 353 34343ft 397kts
03-May-18 11:13 34.912532 -118.600629 353 34376ft 398kts
03-May-18 11:14 35.019847 -118.630839 334 34341ft 405kts
03-May-18 11:15 35.108235 -118.713279 322 34361ft 414kts
03-May-18 11:16 35.196521 -118.803000 322 34362ft 416kts
03-May-18 11:17 35.284923 -118.893023 322 34345ft 417kts
03-May-18 11:18 35.374557 -118.984547 321 32966ft 429kts
03-May-18 11:19 35.471720 -119.069313 339 30007ft 433kts
03-May-18 11:20 35.590099 -119.078356 7 26931ft 440kts
03-May-18 11:21 35.710050 -119.057094 7 24055ft 415kts
03-May-18 11:22 35.816215 -119.038243 7 21234ft 366kts
03-May-18 11:23 35.910468 -119.023070 355 19060ft 319kts
03-May-18 11:24 35.991950 -119.058246 339 16350ft 307kts
03-May-18 11:25 36.070113 -119.095497 339 14116ft 299kts
03-May-18 11:26 36.147238 -119.132258 339 14025ft 299kts
03-May-18 11:27 36.223215 -119.168584 339 11900ft 292kts
03-May-18 11:28 36.297168 -119.204003 339 10078ft 278kts
03-May-18 11:30 36.366923 -119.237484 339 8141ft 263kts
03-May-18 11:31 36.432494 -119.269013 339 7466ft 246kts
03-May-18 11:32 36.495898 -119.299522 339 6331ft 244kts
03-May-18 11:33 36.557910 -119.332223 316 5187ft 243kts
03-May-18 11:34 36.595940 -119.399525 304 4375ft 229kts
03-May-18 11:35 36.630874 -119.461197 306 4038ft 210kts
03-May-18 11:36 36.662499 -119.516867 305 3907ft 185kts
03-May-18 11:37 36.689987 -119.565142 305 3011ft 166kts
03-May-18 11:38 36.716358 -119.611447 305 2142ft 156kts
03-May-18 11:39 36.739465 -119.652208 305 1302ft 140kts
03-May-18 11:40 36.761973 -119.691581 305 627ft 139kts
03-May-18 11:41 36.776469 -119.718591 273 339ft 11kts
03-May-18 11:42 36.776496 -119.719045 274 339ft 0kts
03-May-18 11:43 36.776047 -119.720744 196 339ft 13kts
03-May-18 11:44 36.772801 -119.719276 177 339ft 10kts
03-May-18 11:45 36.771852 -119.719043 123 339ft 0kts

Navigation Log

Ident Type
Flight plan parsing failed, navigation log unavailable